createdAt,value
2023-04-26T00:01:09.922Z,12.85
2023-04-26T00:08:31.208Z,13.65
2023-04-26T00:18:14.681Z,10.80
2023-04-26T00:20:41.602Z,21.52
2023-04-26T00:23:10.570Z,16.10
2023-04-26T00:25:37.466Z,15.15
2023-04-26T00:28:04.282Z,12.00
2023-04-26T00:30:30.964Z,15.88
2023-04-26T00:37:48.560Z,16.95
2023-04-26T00:40:17.227Z,11.00
2023-04-26T00:42:43.869Z,16.17
2023-04-26T00:45:10.630Z,16.38
2023-04-26T00:47:37.533Z,15.55
2023-04-26T00:50:04.837Z,14.77
2023-04-26T00:52:31.899Z,12.50
2023-04-26T00:54:58.719Z,16.98
2023-04-26T00:57:26.154Z,25.23
2023-04-26T00:59:53.216Z,11.50
2023-04-26T01:02:19.983Z,16.13
2023-04-26T01:04:48.170Z,13.70
2023-04-26T01:07:14.828Z,17.95
2023-04-26T01:09:41.501Z,13.25
2023-04-26T01:12:08.924Z,14.98
2023-04-26T01:14:36.906Z,18.35
2023-04-26T01:17:04.024Z,10.43
2023-04-26T01:19:30.713Z,13.88
2023-04-26T01:21:57.414Z,14.23
2023-04-26T01:24:24.149Z,11.07
2023-04-26T01:26:51.047Z,18.85
2023-04-26T01:29:18.534Z,15.07
2023-04-26T01:31:46.066Z,13.20
2023-04-26T01:34:12.801Z,15.00
2023-04-26T01:36:39.442Z,20.13
2023-04-26T01:39:06.394Z,18.58
2023-04-26T01:41:33.777Z,13.55
2023-04-26T01:44:01.391Z,14.10
2023-04-26T01:46:28.154Z,12.50
2023-04-26T01:48:55.038Z,10.88
2023-04-26T01:51:22.921Z,12.10
2023-04-26T01:53:49.645Z,17.88
2023-04-26T01:56:16.894Z,10.68
2023-04-26T01:58:43.653Z,14.48
2023-04-26T02:01:10.325Z,13.77
2023-04-26T02:03:37.206Z,18.50
2023-04-26T02:06:04.150Z,13.00
2023-04-26T02:08:31.061Z,15.50
2023-04-26T02:10:57.832Z,9.63
2023-04-26T02:13:24.864Z,15.18
2023-04-26T02:20:43.697Z,13.05
2023-04-26T02:26:13.401Z,13.30
2023-04-26T02:28:42.837Z,16.42
2023-04-26T02:31:09.476Z,21.17
2023-04-26T02:33:36.172Z,15.60
2023-04-26T02:36:05.128Z,17.63
2023-04-26T02:38:35.751Z,17.13
2023-04-26T02:41:04.540Z,11.38
2023-04-26T02:43:31.533Z,18.95
2023-04-26T02:46:01.535Z,14.63
2023-04-26T02:50:53.828Z,14.57
2023-04-26T02:53:20.956Z,16.75
2023-04-26T02:58:13.374Z,16.70
2023-04-26T03:00:45.521Z,14.95
2023-04-26T03:05:37.962Z,17.33
2023-04-26T03:08:04.815Z,23.65
2023-04-26T03:10:31.558Z,19.92
2023-04-26T03:12:58.249Z,16.30
2023-04-26T03:15:24.847Z,21.60
2023-04-26T03:20:17.937Z,21.80
2023-04-26T03:22:44.758Z,17.27
2023-04-26T03:27:38.714Z,19.63
2023-04-26T03:30:06.076Z,17.75
2023-04-26T03:32:34.384Z,17.67
2023-04-26T03:38:23.871Z,15.18
2023-04-26T03:40:50.935Z,15.80
2023-04-26T03:43:32.806Z,17.13
2023-04-26T03:46:00.910Z,20.02
2023-04-26T03:48:27.601Z,23.98
2023-04-26T03:53:19.646Z,13.90
2023-04-26T03:55:46.341Z,18.05
2023-04-26T03:58:13.186Z,20.80
2023-04-26T04:00:43.677Z,18.73
2023-04-26T04:03:10.741Z,17.73
2023-04-26T04:05:37.895Z,20.20
2023-04-26T04:08:04.651Z,17.45
2023-04-26T04:10:31.423Z,18.02
2023-04-26T04:17:50.225Z,16.08
2023-04-26T04:20:17.116Z,14.25
2023-04-26T04:22:44.060Z,14.85
2023-04-26T04:25:10.956Z,20.35
2023-04-26T04:27:39.096Z,19.75
2023-04-26T04:30:07.636Z,16.95
2023-04-26T04:32:38.113Z,17.88
2023-04-26T04:37:33.148Z,17.63
2023-04-26T04:40:00.489Z,20.55
2023-04-26T04:42:28.313Z,18.80
2023-04-26T04:44:57.677Z,18.77
2023-04-26T04:47:25.116Z,18.40
2023-04-26T04:49:53.079Z,19.25
2023-04-26T04:54:47.491Z,15.27
2023-04-26T04:57:16.788Z,22.77
2023-04-26T05:02:11.124Z,23.35
2023-04-26T05:04:38.406Z,21.42
2023-04-26T05:09:32.225Z,23.10
2023-04-26T05:11:59.041Z,16.73
2023-04-26T05:14:27.032Z,17.02
2023-04-26T05:16:54.641Z,15.23
2023-04-26T05:19:22.085Z,17.23
2023-04-26T05:24:14.188Z,24.48
2023-04-26T05:26:41.020Z,17.02
2023-04-26T05:29:07.701Z,16.63
2023-04-26T05:31:47.181Z,16.10
2023-04-26T05:34:34.235Z,20.48
2023-04-26T05:37:01.228Z,21.90
2023-04-26T05:39:27.915Z,28.23
2023-04-26T05:41:54.762Z,19.55
2023-04-26T05:44:21.534Z,18.73
2023-04-26T05:46:48.141Z,15.35
2023-04-26T05:49:15.002Z,20.48
2023-04-26T05:51:41.900Z,20.42
2023-04-26T05:54:08.559Z,22.63
2023-04-26T05:59:00.746Z,20.02
2023-04-26T06:01:27.882Z,18.13
2023-04-26T06:03:57.993Z,18.92
2023-04-26T06:06:30.598Z,17.13
2023-04-26T06:08:57.244Z,16.42
2023-04-26T06:11:23.961Z,21.35
2023-04-26T06:13:50.984Z,28.17
2023-04-26T06:21:46.765Z,16.40
2023-04-26T06:24:13.520Z,23.13
2023-04-26T06:26:40.246Z,21.38
2023-04-26T06:33:58.230Z,21.65
2023-04-26T06:36:25.989Z,17.65
2023-04-26T06:38:53.078Z,17.10
2023-04-26T06:41:19.688Z,16.23
2023-04-26T06:46:14.487Z,18.58
2023-04-26T06:48:41.233Z,18.92
2023-04-26T06:53:34.336Z,13.75
2023-04-26T06:56:01.013Z,16.98
2023-04-26T07:00:53.070Z,19.35
2023-04-26T07:03:20.317Z,15.55
2023-04-26T07:05:47.102Z,15.25
2023-04-26T07:08:14.093Z,15.25
2023-04-26T07:10:41.257Z,16.63
2023-04-26T07:15:33.497Z,17.58
2023-04-26T07:18:00.404Z,14.25
2023-04-26T07:20:27.252Z,13.65
2023-04-26T07:22:54.005Z,18.08
2023-04-26T07:25:21.041Z,16.15
2023-04-26T07:27:47.713Z,17.60
2023-04-26T07:30:14.564Z,18.52
2023-04-26T07:32:41.595Z,19.13
2023-04-26T07:40:01.627Z,15.70
2023-04-26T07:42:28.435Z,18.08
2023-04-26T07:44:55.088Z,17.15
2023-04-26T07:47:21.905Z,14.88
2023-04-26T07:49:52.798Z,15.20
2023-04-26T07:52:19.492Z,16.15
2023-04-26T07:54:46.838Z,14.13
2023-04-26T07:57:13.531Z,19.60
2023-04-26T07:59:40.192Z,19.58
2023-04-26T08:02:07.234Z,18.63
2023-04-26T08:04:34.691Z,20.60
2023-04-26T08:07:04.287Z,13.48
2023-04-26T08:09:31.023Z,16.23
2023-04-26T08:11:58.054Z,23.10
2023-04-26T08:14:24.909Z,17.48
2023-04-26T08:16:51.743Z,16.98
2023-04-26T08:19:18.604Z,17.77
2023-04-26T08:21:45.314Z,15.27
2023-04-26T08:24:12.012Z,14.20
2023-04-26T08:26:38.706Z,22.55
2023-04-26T08:29:05.421Z,15.68
2023-04-26T08:31:32.338Z,15.68
2023-04-26T08:33:59.170Z,15.93
2023-04-26T08:36:26.215Z,22.83
2023-04-26T08:38:52.818Z,14.82
2023-04-26T08:41:22.516Z,16.88
2023-04-26T08:43:49.760Z,19.92
2023-04-26T08:46:19.145Z,16.33
2023-04-26T08:48:49.794Z,16.63
2023-04-26T08:51:17.032Z,14.77
2023-04-26T08:53:43.864Z,17.63
2023-04-26T08:58:37.952Z,20.65
2023-04-26T09:01:05.442Z,14.48
2023-04-26T09:03:32.232Z,18.52
2023-04-26T09:05:59.593Z,15.25
2023-04-26T09:08:28.189Z,16.10
2023-04-26T09:10:54.825Z,16.15
2023-04-26T09:13:28.337Z,18.50
2023-04-26T09:15:55.063Z,19.98
2023-04-26T09:18:22.864Z,16.85
2023-04-26T09:21:17.995Z,22.38
2023-04-26T09:23:57.899Z,22.98
2023-04-26T09:31:35.562Z,16.60
2023-04-26T09:34:02.280Z,13.27
2023-04-26T09:36:28.974Z,17.05
2023-04-26T09:41:21.988Z,14.52
2023-04-26T09:43:50.298Z,16.08
2023-04-26T09:49:00.364Z,15.93
2023-04-26T09:53:53.175Z,15.85
2023-04-26T09:56:22.206Z,17.73
2023-04-26T10:01:24.738Z,15.75
2023-04-26T10:03:52.186Z,16.17
2023-04-26T10:08:44.759Z,16.40
2023-04-26T10:11:12.647Z,17.75
2023-04-26T10:13:40.084Z,13.25
2023-04-26T10:16:06.984Z,12.30
2023-04-26T10:18:33.916Z,12.95
2023-04-26T10:25:56.558Z,13.68
2023-04-26T10:31:26.103Z,12.25
2023-04-26T10:34:28.595Z,11.75
2023-04-26T10:42:25.092Z,15.18
2023-04-26T10:44:56.246Z,12.07
2023-04-26T10:49:53.688Z,11.30
2023-04-26T10:52:23.252Z,16.70
2023-04-26T10:57:17.181Z,14.55
2023-04-26T11:00:05.412Z,13.40
2023-04-26T11:02:53.450Z,12.55
2023-04-26T11:08:07.709Z,11.85
2023-04-26T11:10:35.772Z,10.82
2023-04-26T11:13:03.809Z,12.13
2023-04-26T11:15:34.055Z,11.35
2023-04-26T11:18:04.655Z,14.85
2023-04-26T11:20:34.728Z,9.77
2023-04-26T11:23:01.669Z,11.80
2023-04-26T11:25:29.050Z,10.80
2023-04-26T11:28:02.437Z,16.10
2023-04-26T11:30:32.861Z,12.77
2023-04-26T11:33:00.541Z,9.88
2023-04-26T11:35:29.575Z,11.23
2023-04-26T11:38:02.276Z,10.90
2023-04-26T11:40:30.208Z,9.38
2023-04-26T11:43:06.814Z,10.93
2023-04-26T11:45:35.153Z,8.70
2023-04-26T11:50:33.411Z,7.95
2023-04-26T11:53:01.193Z,12.90
2023-04-26T11:55:28.360Z,10.13
2023-04-26T11:57:55.103Z,11.43
2023-04-26T12:00:21.884Z,11.07
2023-04-26T12:02:49.276Z,14.18
2023-04-26T12:05:23.160Z,11.23
2023-04-26T12:07:50.300Z,14.05
2023-04-26T12:10:17.988Z,8.82
2023-04-26T12:12:47.168Z,9.40
2023-04-26T12:15:15.614Z,8.82
2023-04-26T12:17:51.675Z,11.88
2023-04-26T12:20:18.692Z,9.48
2023-04-26T12:23:03.829Z,8.00
2023-04-26T12:25:30.955Z,9.10
2023-04-26T12:27:58.034Z,8.88
2023-04-26T12:30:25.851Z,9.68
2023-04-26T12:33:15.356Z,10.23
2023-04-26T12:35:43.702Z,11.00
2023-04-26T12:40:36.893Z,8.80
2023-04-26T12:43:03.602Z,10.48
2023-04-26T12:45:30.376Z,10.15
2023-04-26T12:47:57.197Z,7.53
2023-04-26T12:50:24.020Z,9.73
2023-04-26T12:52:50.762Z,8.65
2023-04-26T12:55:17.695Z,9.68
2023-04-26T12:57:44.876Z,11.73
2023-04-26T13:00:12.915Z,9.70
2023-04-26T13:02:40.168Z,7.60
2023-04-26T13:05:07.361Z,7.55
2023-04-26T13:07:34.699Z,10.43
2023-04-26T13:10:01.676Z,8.65
2023-04-26T13:12:28.551Z,10.57
2023-04-26T13:15:11.500Z,10.50
2023-04-26T13:17:38.383Z,7.22
2023-04-26T13:20:06.632Z,11.45
2023-04-26T13:22:33.646Z,7.85
2023-04-26T13:25:00.603Z,12.18
2023-04-26T13:27:29.875Z,11.68
2023-04-26T13:29:57.960Z,8.40
2023-04-26T13:32:24.730Z,10.23
2023-04-26T13:34:51.875Z,10.98
2023-04-26T13:37:21.364Z,9.90
2023-04-26T13:39:48.641Z,10.45
2023-04-26T13:42:16.542Z,7.70
2023-04-26T13:47:08.843Z,10.20
2023-04-26T13:49:35.518Z,9.23
2023-04-26T13:54:28.087Z,10.00
2023-04-26T13:56:54.852Z,9.48
2023-04-26T13:59:21.965Z,9.95
2023-04-26T14:01:48.835Z,10.63
2023-04-26T14:04:16.015Z,8.23
2023-04-26T14:09:08.879Z,11.43
2023-04-26T14:11:35.754Z,13.55
2023-04-26T14:14:02.442Z,9.50
2023-04-26T14:16:29.236Z,11.05
2023-04-26T14:18:56.098Z,9.77
2023-04-26T14:21:22.853Z,8.07
2023-04-26T14:23:49.569Z,10.48
2023-04-26T14:26:17.648Z,11.43
2023-04-26T14:31:09.776Z,8.82
2023-04-26T14:33:36.739Z,10.75
2023-04-26T14:40:54.477Z,8.57
2023-04-26T14:45:46.735Z,8.38
2023-04-26T14:48:13.524Z,8.90
2023-04-26T14:55:31.401Z,10.25
2023-04-26T14:57:58.135Z,8.77
2023-04-26T15:00:25.646Z,11.35
2023-04-26T15:02:52.433Z,11.50
2023-04-26T15:07:44.702Z,12.00
2023-04-26T15:10:11.460Z,9.10
2023-04-26T15:15:04.078Z,12.07
2023-04-26T15:17:34.204Z,10.02
2023-04-26T15:22:27.178Z,10.65
2023-04-26T15:24:53.946Z,11.00
2023-04-26T15:27:20.749Z,9.63
2023-04-26T15:29:47.382Z,10.25
2023-04-26T15:32:13.972Z,9.90
2023-04-26T15:34:43.509Z,10.48
2023-04-26T15:37:12.943Z,12.40
2023-04-26T15:44:57.061Z,9.60
2023-04-26T15:47:23.820Z,9.57
2023-04-26T15:49:50.471Z,10.75
2023-04-26T15:52:18.214Z,11.27
2023-04-26T15:54:44.876Z,11.18
2023-04-26T15:57:11.514Z,10.98
2023-04-26T15:59:38.241Z,11.85
2023-04-26T16:02:06.046Z,11.90
2023-04-26T16:04:33.061Z,13.95
2023-04-26T16:06:59.888Z,8.20
2023-04-26T16:19:08.442Z,13.73
2023-04-26T16:21:35.655Z,9.38
2023-04-26T16:24:02.549Z,10.95
2023-04-26T16:26:29.333Z,12.32
2023-04-26T16:28:55.988Z,13.40
2023-04-26T16:33:48.114Z,14.23
2023-04-26T16:36:15.257Z,14.15
2023-04-26T16:41:07.385Z,14.65
2023-04-26T16:43:34.185Z,12.07
2023-04-26T16:48:27.261Z,16.42
2023-04-26T16:50:54.051Z,24.20
2023-04-26T16:55:47.035Z,25.60
2023-04-26T16:58:14.355Z,15.82
2023-04-26T17:00:44.650Z,12.70
2023-04-26T17:03:20.734Z,11.20
2023-04-26T17:05:48.351Z,11.82
2023-04-26T17:08:18.360Z,12.80
2023-04-26T17:10:46.063Z,14.95
2023-04-26T17:13:15.653Z,13.15
2023-04-26T17:15:42.709Z,12.57
2023-04-26T17:20:35.577Z,13.35
2023-04-26T17:23:04.107Z,9.88
2023-04-26T17:25:31.418Z,13.27
2023-04-26T17:27:58.215Z,14.93
2023-04-26T17:30:24.898Z,13.38
2023-04-26T17:35:17.036Z,15.57
2023-04-26T17:37:46.272Z,10.82
2023-04-26T17:40:13.049Z,17.35
2023-04-26T17:52:22.160Z,19.38
2023-04-26T17:54:48.894Z,12.07
2023-04-26T17:57:18.161Z,16.23
2023-04-26T17:59:44.908Z,16.27
2023-04-26T18:02:11.677Z,15.63
2023-04-26T18:07:04.447Z,16.92
2023-04-26T18:09:31.305Z,18.30
2023-04-26T18:11:58.053Z,18.08
2023-04-26T18:14:27.968Z,17.33
2023-04-26T18:16:54.769Z,16.65
2023-04-26T18:19:21.455Z,12.57
2023-04-26T18:21:52.301Z,14.27
2023-04-26T18:24:19.610Z,14.68
2023-04-26T18:26:46.430Z,15.90
2023-04-26T18:29:13.137Z,14.27
2023-04-26T18:31:39.880Z,13.52
2023-04-26T18:36:32.534Z,18.70
2023-04-26T18:39:00.868Z,17.92
2023-04-26T18:43:53.703Z,17.90
2023-04-26T18:46:21.423Z,18.02
2023-04-26T18:48:48.209Z,16.10
2023-04-26T18:51:15.065Z,18.67
2023-04-26T18:53:41.660Z,18.10
2023-04-26T18:58:33.785Z,15.85
2023-04-26T19:01:01.072Z,19.48
2023-04-26T19:08:19.526Z,19.35
2023-04-26T19:10:46.378Z,20.40
2023-04-26T19:13:12.955Z,17.75
2023-04-26T19:15:39.707Z,17.13
2023-04-26T19:18:06.473Z,17.83
2023-04-26T19:20:33.161Z,19.05
2023-04-26T19:22:59.801Z,15.68
2023-04-26T19:25:27.432Z,18.98
2023-04-26T19:27:54.136Z,18.25
2023-04-26T19:30:20.951Z,18.30
2023-04-26T19:32:47.670Z,19.00
2023-04-26T19:35:14.503Z,18.00
2023-04-26T19:37:41.166Z,17.17
2023-04-26T19:40:09.181Z,21.15
2023-04-26T19:42:36.029Z,19.73
2023-04-26T19:45:03.059Z,18.75
2023-04-26T19:47:29.701Z,17.08
2023-04-26T19:49:57.791Z,21.42
2023-04-26T19:52:24.489Z,15.85
2023-04-26T19:54:54.529Z,20.42
2023-04-26T19:57:22.201Z,19.98
2023-04-26T19:59:48.860Z,19.50
2023-04-26T20:02:15.609Z,27.92
2023-04-26T20:04:43.025Z,21.75
2023-04-26T20:07:10.096Z,18.88
2023-04-26T20:09:36.799Z,20.67
2023-04-26T20:12:03.633Z,21.35
2023-04-26T20:14:30.633Z,16.73
2023-04-26T20:16:57.449Z,23.55
2023-04-26T20:19:24.170Z,19.60
2023-04-26T20:21:50.865Z,23.05
2023-04-26T20:26:42.993Z,24.13
2023-04-26T20:29:10.007Z,20.90
2023-04-26T20:34:02.365Z,22.20
2023-04-26T20:36:29.192Z,23.48
2023-04-26T20:41:21.634Z,22.63
2023-04-26T20:43:48.296Z,21.02
2023-04-26T20:48:41.111Z,23.02
2023-04-26T20:51:07.829Z,17.77
2023-04-26T20:53:34.493Z,15.95
2023-04-26T20:56:01.147Z,21.90
2023-04-26T20:58:27.777Z,21.33
2023-04-26T21:05:46.938Z,21.23
2023-04-26T21:08:13.748Z,18.60
2023-04-26T21:10:40.478Z,18.38
2023-04-26T21:13:07.075Z,19.33
2023-04-26T21:15:33.811Z,16.85
2023-04-26T21:18:00.571Z,17.70
2023-04-26T21:20:27.266Z,19.33
2023-04-26T21:22:54.090Z,20.48
2023-04-26T21:25:20.762Z,18.35
2023-04-26T21:27:47.456Z,18.23
2023-04-26T21:32:40.416Z,21.30
2023-04-26T21:35:07.627Z,20.73
2023-04-26T21:37:34.320Z,17.77
2023-04-26T21:40:01.322Z,18.30
2023-04-26T21:42:27.987Z,21.95
2023-04-26T21:47:20.059Z,21.55
2023-04-26T21:49:46.767Z,19.27
2023-04-26T21:52:13.453Z,19.48
2023-04-26T21:54:40.167Z,18.40
2023-04-26T21:57:07.157Z,19.52
2023-04-26T21:59:33.980Z,22.73
2023-04-26T22:02:01.297Z,17.98
2023-04-26T22:04:28.097Z,22.27
2023-04-26T22:06:55.074Z,23.13
2023-04-26T22:09:21.823Z,18.42
2023-04-26T22:11:48.458Z,23.85
2023-04-26T22:14:15.187Z,22.85
2023-04-26T22:16:42.020Z,19.50
2023-04-26T22:19:08.886Z,18.17
2023-04-26T22:21:36.573Z,25.77
2023-04-26T22:24:03.344Z,20.15
2023-04-26T22:26:29.939Z,20.95
2023-04-26T22:31:22.175Z,19.77
2023-04-26T22:33:48.925Z,20.20
2023-04-26T22:38:41.142Z,29.50
2023-04-26T22:41:07.844Z,22.13
2023-04-26T22:46:00.642Z,20.10
2023-04-26T22:48:27.466Z,18.50
2023-04-26T22:50:54.109Z,22.05
2023-04-26T22:53:21.551Z,22.65
2023-04-26T22:55:48.220Z,22.00
2023-04-26T23:00:42.329Z,22.50
2023-04-26T23:03:09.112Z,19.77
2023-04-26T23:08:02.016Z,22.80
2023-04-26T23:10:28.742Z,21.23
2023-04-26T23:12:55.556Z,23.50
2023-04-26T23:15:22.245Z,26.02
2023-04-26T23:17:49.381Z,22.02
2023-04-26T23:22:42.670Z,22.20
2023-04-26T23:25:10.306Z,23.35
2023-04-26T23:27:37.361Z,21.55
2023-04-26T23:30:04.839Z,23.13
2023-04-26T23:32:31.535Z,25.38
2023-04-26T23:34:58.295Z,23.20
2023-04-26T23:37:25.024Z,20.33
2023-04-26T23:39:52.198Z,22.08
2023-04-26T23:44:44.336Z,22.85
2023-04-26T23:47:11.062Z,24.85
2023-04-26T23:52:03.139Z,23.98
2023-04-26T23:54:29.819Z,22.15
2023-04-26T23:56:56.897Z,26.33
2023-04-26T23:59:23.672Z,25.02
